Latest Coastal Weather Observations for Bairnsdale

IDV60701

Issued at 9:21 pm EST Tuesday 7 July 2015 (issued every 10 minutes, with the page automatically refreshed every 10 minutes)

About coastal observations | Map of coastal stations | Coastal observations for VIC | Marine services | Other Formats
Station Details ID: 085279 Name: BAIRNSDALE AIRPORT Lat: -37.88 Lon: 147.57 Height: 49.4 m
Data from the previous 72 hours. | See also: Recent months at Bairnsdale
Date/Time
EST
Temp

°C
Wind Pressure Rain
since 9am
mm
Weather Cloud Vis
km
Sea
Height
m
Swell
Dir
 
Speed
knots
Gust
knots
hPa Trend Height
m
Period
s
Dir
07/09:00pm 8.1 NNW 2 3 1026.6 - 0.2 - Cloudy 10 - - - -
07/08:30pm 7.9 CALM 0 0 1026.4 - 0.2 - Partly cloudy 10 - - - -
07/08:00pm 7.8 N 1 3 1026.1 - 0.2 - Cloudy 10 - - - -
07/07:30pm 8.1 N 4 5 1026.0 - 0.2 - Partly cloudy 10 - - - -
07/07:00pm 8.0 CALM 0 0 1025.8 - 0.2 - Partly cloudy 10 - - - -
07/06:30pm 8.8 SSE 5 5 1025.6 - 0.2 - Partly cloudy 10 - - - -
07/06:00pm 8.9 CALM 0 0 1025.3 - 0.2 - Cloudy 10 - - - -
07/05:30pm 9.4 CALM 0 0 1025.0 - 0.2 - Partly cloudy 10 - - - -
07/05:00pm 10.5 SSE 2 3 1024.7 - 0.2 - Partly cloudy 10 - - - -
07/04:30pm 10.8 SSE 3 4 1024.4 - 0.2 - Cloudy 10 - - - -
07/04:00pm 10.9 SE 3 4 1024.1 - 0.2 - Cloudy 10 - - - -
07/03:30pm 11.0 ESE 3 5 1023.9 - 0.2 - Partly cloudy 10 - - - -
07/03:00pm 11.2 SE 8 9 1023.6 - 0.2 - Cloudy 10 - - - -
07/02:30pm 11.6 E 2 5 1023.3 - 0.2 - Partly cloudy 10 - - - -
07/02:00pm 12.1 ESE 4 6 1023.2 - 0.2 - Partly cloudy 10 - - - -
07/01:30pm 10.9 SSE 4 6 1023.3 - 0.2 - Partly cloudy 10 - - - -
07/01:00pm 10.7 NNE 4 6 1023.4 - 0.2 - Partly cloudy 10 - - - -
07/12:45pm 10.1 NNE 4 7 1023.4 - 0.2 - Partly cloudy 10 - - - -
07/12:30pm 10.0 NNE 4 6 1023.5 - 0.2 - Partly cloudy 10 - - - -
07/12:00pm 9.7 NNE 3 5 1023.6 - 0.2 - Cloudy 7 - - - -
07/11:54am 9.7 NW 2 3 1023.6 - 0.2 - Partly cloudy 10 - - - -
07/11:30am 9.6 NW 3 4 1023.8 - 0.2 - Partly cloudy 10 - - - -
07/11:17am 9.4 NW 3 4 1023.8 - 0.2 - Partly cloudy 10 - - - -
07/11:13am 9.6 NW 2 4 1023.8 - 0.2 - Partly cloudy 10 - - - -
07/11:00am 9.4 WNW 3 4 1023.9 - 0.2 - Partly cloudy 4 - - - -
07/10:33am 9.2 WNW 3 4 1023.9 - 0.0 - Partly cloudy 5 - - - -
07/10:31am 9.3 WNW 3 4 1023.9 - 0.0 - Partly cloudy 7 - - - -
07/10:30am 9.2 WNW 3 4 1023.9 - 0.0 - Partly cloudy 8 - - - -
07/10:17am 9.3 WNW 4 5 1023.8 - 0.0 - Partly cloudy 10 - - - -
07/10:02am 9.4 WNW 5 6 1023.6 - 0.0 - Partly cloudy 10 - - - -
07/10:00am 9.3 W 5 6 1023.5 - 0.0 - Partly cloudy 10 - - - -
07/09:34am 9.0 WSW 5 7 1023.2 - 0.0 - Cloudy 10 - - - -
07/09:30am 8.9 W 5 7 1023.2 - 0.0 - Partly cloudy 9 - - - -
07/09:20am 8.8 WNW 5 7 1023.0 - 0.0 - Partly cloudy 5 - - - -
07/09:19am 8.9 WNW 5 7 1023.0 - 0.0 - Partly cloudy 5 - - - -
07/09:00am 8.6 WNW 7 9 1022.8 - 8.8 - Cloudy 9 - - - -
07/08:44am 8.6 WNW 7 9 1022.6 - 8.8 - Partly cloudy 8 - - - -
07/08:30am 8.5 NW 5 7 1022.5 - 8.8 - Partly cloudy 5 - - - -
07/08:00am 8.2 WNW 3 4 1022.2 - 8.8 - Cloudy 2 - - - -
07/07:30am 8.1 CALM 0 0 1022.0 - 8.6 - Cloudy 2 - - - -
07/07:00am 8.0 WNW 3 4 1021.6 - 8.6 - Partly cloudy 2 - - - -
07/06:30am 8.0 WNW 3 4 1021.1 - 8.6 - Partly cloudy 2 - - - -
07/06:00am 8.0 WNW 3 3 1020.7 - 8.0 Recent precip. Cloudy 2 - - - -
07/05:30am 8.0 WNW 3 4 1020.2 - 7.8 - Partly cloudy 3 - - - -
07/05:00am 8.1 NW 4 5 1019.9 - 7.8 - Cloudy 5 - - - -
07/04:40am 8.1 NW 4 5 1019.8 - 7.8 - Cloudy 5 - - - -
07/04:30am 8.2 NW 4 5 1019.8 - 7.8 - Partly cloudy 8 - - - -
07/04:00am 8.3 WNW 6 8 1019.6 - 7.8 - Cloudy 10 - - - -
07/03:30am 8.3 W 5 6 1019.6 - 7.8 - Cloudy 10 - - - -
07/03:00am 8.3 W 4 5 1019.6 - 7.6 Rain Mostly cloudy 6 - - - -
07/02:30am 8.2 W 4 5 1019.4 - 7.4 - Partly cloudy 10 - - - -
07/02:00am 8.1 WNW 4 5 1019.1 - 7.4 - Cloudy 10 - - - -
07/01:30am 8.2 WNW 4 5 1018.9 - 7.4 - Cloudy 10 - - - -
07/01:00am 8.2 W 5 6 1018.7 - 7.4 - Cloudy 10 - - - -
07/12:30am 8.1 W 5 6 1018.7 - 7.4 - Cloudy 10 - - - -
07/12:00am 8.1 WNW 4 5 1018.7 - 7.2 Recent precip. Cloudy 10 - - - -
 
Date/Time
EST
Temp

°C
Wind Pressure Rain
since 9am
mm
Weather Cloud Vis
km
Sea
Height
m
Swell
Dir
 
Speed
knots
Gust
knots
hPa Trend Height
m
Period
s
Dir
06/11:30pm 8.1 WNW 6 7 1018.6 - 7.0 - Partly cloudy 10 - - - -
06/11:00pm 8.0 WNW 3 5 1018.5 - 7.0 - Cloudy 10 - - - -
06/10:30pm 8.1 NW 4 5 1018.3 - 7.0 - Cloudy 10 - - - -
06/10:00pm 8.1 NW 5 5 1018.2 - 7.0 - Cloudy 10 - - - -
06/09:30pm 8.1 NW 3 4 1018.1 - 6.8 - Cloudy 9 - - - -
06/09:00pm 8.3 NNW 4 6 1017.9 - 6.8 Rain Cloudy 10 - - - -
06/08:30pm 8.1 NW 4 4 1017.5 - 6.6 - Cloudy 10 - - - -
06/08:00pm 8.1 SW 1 3 1017.3 - 6.6 - Cloudy 10 - - - -
06/07:30pm 8.0 SSW 3 4 1017.2 - 6.6 - Cloudy 10 - - - -
06/07:00pm 8.1 S 5 6 1016.9 - 6.6 - Cloudy 10 - - - -
06/06:30pm 8.2 SSE 3 4 1016.4 - 6.6 - Cloudy 10 - - - -
06/06:00pm 8.3 SW 3 4 1016.1 - 6.6 Recent precip. Cloudy 10 - - - -
06/05:30pm 8.3 WNW 3 3 1015.6 - 6.6 - Cloudy 10 - - - -
06/05:00pm 8.4 NW 4 5 1015.3 - 6.4 - Cloudy 10 - - - -
06/04:30pm 8.5 NW 6 7 1015.0 - 6.4 - Cloudy 10 - - - -
06/04:24pm 8.5 NW 5 7 1014.9 - 6.2 - Cloudy 10 - - - -
06/04:13pm 8.5 NNW 7 8 1014.9 - 5.8 - Partly cloudy 5 - - - -
06/04:00pm 8.7 NNW 6 9 1014.8 - 5.0 - Partly cloudy 10 - - - -
06/03:30pm 9.2 NW 7 10 1014.8 - 4.0 - Cloudy 10 - - - -
06/03:00pm 9.8 WNW 7 9 1014.7 - 2.2 Rain Mostly cloudy 10 - - - -
06/02:30pm 10.0 NW 5 7 1014.3 - 2.0 - Cloudy 10 - - - -
06/02:00pm 9.8 NNW 5 7 1014.3 - 2.0 - Cloudy 10 - - - -
06/01:30pm 10.0 NNW 4 6 1014.5 - 2.0 - Cloudy 10 - - - -
06/01:00pm 9.3 N 6 7 1014.5 - 2.0 - Cloudy 10 - - - -
06/12:30pm 8.9 NNW 7 9 1014.9 - 1.8 - Cloudy 10 - - - -
06/12:00pm 9.2 NW 7 9 1015.3 - 1.0 Rain Cloudy 10 - - - -
06/11:30am 9.1 NW 8 10 1015.7 - 0.6 - Partly cloudy 10 - - - -
06/11:00am 9.8 NW 9 11 1015.9 - 0.0 - Partly cloudy 10 - - - -
06/10:30am 10.6 NW 10 15 1015.9 - 0.0 - Partly cloudy 10 - - - -
06/10:00am 10.4 WNW 8 10 1015.9 - 0.0 - Cloudy 10 - - - -
06/09:30am 10.1 WNW 7 10 1015.9 - 0.0 - Cloudy 10 - - - -
06/09:00am 9.3 NW 6 8 1015.6 - 0.0 - Mostly cloudy 10 - - - -
06/08:30am 9.2 NW 7 9 1015.4 - 0.0 - Cloudy 10 - - - -
06/08:00am 9.1 NW 8 10 1015.3 - 0.0 - Cloudy 10 - - - -
06/07:30am 8.9 NW 8 10 1015.1 - 0.0 - Cloudy 10 - - - -
06/07:00am 8.7 NW 6 8 1015.1 - 0.0 - Cloudy 10 - - - -
06/06:30am 8.5 NW 5 6 1015.1 - 0.0 - Cloudy 10 - - - -
06/06:00am 8.6 NNW 6 8 1015.0 - 0.0 - Cloudy 10 - - - -
06/05:30am 8.5 NW 8 11 1015.0 - 0.0 - Partly cloudy 10 - - - -
06/05:00am 8.3 NW 8 10 1015.1 - 0.0 - Cloudy 10 - - - -
06/04:30am 8.3 NW 7 10 1015.1 - 0.0 - Cloudy 10 - - - -
06/04:00am 7.5 NW 6 8 1015.1 - 0.0 - Partly cloudy 10 - - - -
06/03:30am 6.6 NW 7 10 1015.3 - 0.0 - - 10 - - - -
06/03:00am 5.9 NW 7 8 1015.6 - 0.0 - - 10 - - - -
06/02:30am 5.8 NNW 5 6 1015.9 - 0.0 - - 10 - - - -
06/02:00am 5.8 NW 6 7 1016.1 - 0.0 - - 10 - - - -
06/01:30am 6.2 NW 7 10 1016.1 - 0.0 - - 10 - - - -
06/01:00am 6.4 WNW 9 10 1016.3 - 0.0 - - 10 - - - -
06/12:30am 5.6 NW 6 7 1016.6 - 0.0 - - 10 - - - -
06/12:00am 6.2 NW 6 7 1016.7 - 0.0 - - 10 - - - -
 
Date/Time
EST
Temp

°C
Wind Pressure Rain
since 9am
mm
Weather Cloud Vis
km
Sea
Height
m
Swell
Dir
 
Speed
knots
Gust
knots
hPa Trend Height
m
Period
s
Dir
05/11:30pm 6.0 NW 6 7 1017.0 - 0.0 - - 10 - - - -
05/11:00pm 6.7 NW 4 5 1016.9 - 0.0 - - 10 - - - -
05/10:30pm 6.6 NW 6 7 1017.0 - 0.0 - - 10 - - - -
05/10:00pm 6.9 NW 5 5 1017.2 - 0.0 - - 10 - - - -
05/09:30pm 7.3 NW 6 7 1017.3 - 0.0 - - 10 - - - -
05/09:00pm 7.9 NW 7 9 1017.4 - 0.0 - - 10 - - - -
05/08:30pm 7.9 NW 7 8 1017.5 - 0.0 - Partly cloudy 10 - - - -
05/08:00pm 8.4 NW 6 7 1017.6 - 0.0 - Partly cloudy 10 - - - -
05/07:30pm 9.2 NW 7 9 1017.7 - 0.0 - Cloudy 10 - - - -
05/07:00pm 9.4 NW 7 9 1017.7 - 0.0 - Partly cloudy 10 - - - -
05/06:30pm 10.0 NW 6 8 1017.7 - 0.0 - Cloudy 10 - - - -
05/06:00pm 10.4 NW 7 11 1017.6 - 0.0 - Mostly cloudy 10 - - - -
05/05:30pm 9.9 NW 5 7 1017.4 - 0.0 - Partly cloudy 10 - - - -
05/05:00pm 11.1 NW 7 9 1017.3 - 0.0 - - 10 - - - -
05/04:30pm 12.1 NW 5 7 1017.3 - 0.0 - - 10 - - - -
05/04:00pm 13.5 NW 7 10 1017.1 - 0.0 - - 10 - - - -
05/03:30pm 15.2 NW 7 10 1017.0 - 0.0 - - 10 - - - -
05/03:00pm 15.6 NNW 8 11 1016.9 - 0.0 - - 10 - - - -
05/02:30pm 15.4 NW 9 12 1017.0 - 0.0 - - 10 - - - -
05/02:00pm 15.3 NNW 9 11 1017.2 - 0.0 - - 10 - - - -
05/01:30pm 15.1 NW 10 13 1017.3 - 0.0 - - 10 - - - -
05/01:00pm 14.9 NW 9 13 1017.6 - 0.0 - Partly cloudy 10 - - - -
05/12:30pm 14.4 NW 8 11 1017.9 - 0.0 - Partly cloudy 10 - - - -
05/12:00pm 13.8 NW 8 10 1018.5 - 0.0 - - 10 - - - -
05/11:30am 13.8 NNW 9 11 1018.8 - 0.0 - Partly cloudy 10 - - - -
05/11:00am 13.6 NNW 9 11 1019.3 - 0.0 - - 10 - - - -
05/10:30am 13.6 NW 10 13 1019.5 - 0.0 - - 10 - - - -
05/10:00am 12.9 NW 9 12 1019.7 - 0.0 - - 10 - - - -
05/09:30am 11.0 NW 8 10 1019.6 - 0.0 - - 10 - - - -
05/09:00am 9.4 NW 8 10 1019.6 - 0.0 - Mostly clear 10 - - - -
05/08:30am 9.7 NW 7 9 1019.5 - 0.0 - Partly cloudy 10 - - - -
05/08:00am 9.5 WNW 8 10 1019.5 - 0.0 - Partly cloudy 10 - - - -
05/07:30am 8.7 WNW 8 10 1019.3 - 0.0 - Partly cloudy 10 - - - -
05/07:00am 9.1 WNW 7 9 1019.3 - 0.0 - Partly cloudy 10 - - - -
05/06:30am 9.2 NW 7 10 1019.1 - 0.0 - Cloudy 10 - - - -
05/06:00am 9.6 NW 7 10 1019.1 - 0.0 - Cloudy 10 - - - -
05/05:30am 9.5 NW 8 10 1019.0 - 0.0 - Cloudy 10 - - - -
05/05:00am 9.2 WNW 8 9 1019.1 - 0.0 - Cloudy 10 - - - -
05/04:30am 9.3 NW 8 9 1019.1 - 0.0 - Cloudy 10 - - - -
05/04:00am 9.3 NW 7 9 1019.1 - 0.0 - Cloudy 10 - - - -
05/03:30am 9.5 NW 7 9 1019.4 - 0.0 - Partly cloudy 10 - - - -
05/03:00am 9.8 NW 8 11 1019.7 - 0.0 - Cloudy 10 - - - -
05/02:30am 10.3 WNW 9 11 1019.7 - 0.0 - Partly cloudy 10 - - - -
05/02:00am 10.0 WNW 9 13 1019.7 - 0.0 - Partly cloudy 10 - - - -
05/01:30am 9.6 NW 6 9 1019.7 - 0.0 - Partly cloudy 10 - - - -
05/01:00am 9.8 WNW 8 10 1019.9 - 0.0 - Partly cloudy 10 - - - -
05/12:30am 10.1 W 9 11 1020.0 - 0.0 - Partly cloudy 10 - - - -
05/12:00am 10.3 WNW 9 11 1020.1 - 0.0 - Cloudy 10 - - - -
 
Date/Time
EST
Temp

°C
Wind Pressure Rain
since 9am
mm
Weather Cloud Vis
km
Sea
Height
m
Swell
Dir
 
Speed
knots
Gust
knots
hPa Trend Height
m
Period
s
Dir
04/11:30pm 10.2 WNW 9 11 1020.3 - 0.0 - Partly cloudy 10 - - - -
04/11:00pm 10.0 NW 9 12 1020.1 - 0.0 - Partly cloudy 10 - - - -
04/10:30pm 10.2 WNW 7 9 1020.2 - 0.0 - Cloudy 10 - - - -
04/10:00pm 10.3 WNW 9 11 1020.2 - 0.0 - Cloudy 10 - - - -
04/09:30pm 10.2 WNW 7 10 1020.4 - 0.0 - Cloudy 10 - - - -

Other Formats:

Comma delimited format used in spreadsheet applications
http://www.bom.gov.au/fwo/IDV60701/IDV60701.94912.axf

JavaScript Object Notation format (JSON) in row-major order
http://www.bom.gov.au/fwo/IDV60701/IDV60701.94912.json